Wevertown, New York
Current Conditions -  °F | °C
As of 2:53 AM on Wednesday 26 Nov 2014 (Local Time) from KGFL Reporting Station
Few Clouds Few Clouds  
Wind Chill: 37°   Ceiling: Unl
Heat Index: 37°   Visibility: 10mi
Dew Point: 26°   Wind: 0mph
Humidity: 65%   Direction: NA
Pressure: 30.19"   Gusts: NA
Location:  43.63°N, 73.94°W
Report Text: KGFL 260753Z AUTO 00000KT 10SM FEW043 03/M03 A3019 RMK AO2 SLP229 T00281033
Loading
Personal Weather Stations






























Interactive Weather Map New forecast layout! Learn more

10-Day Weather Forecast

Advertisements
Track Severe Weather on mobile